Groton New London Airport
KGON : now visible

Airfield :











YOU CAN JOIN US ON...

 
LOGIN :

Register | Disclaimer

   EN    FR    IT 

 









Legend :    VFR   Marginal VFR   IFR   Intensive IFR   Very Intensive IFR
Visi :
Ceiling :
>= 8 km
>= 3000ft
5 to 8 km
1000 to 3000 ft
1500m to 5 km
500 to 1000 ft
800 to 1500m
200 to 500 ft
< 800m
< 200 ft
Symbols :   Thunderstorms  Fog  Heavy snow  Heavy precipitations  Wind > 20 kt






- Airport Elevation : 9 ft
- IATA code : GON


KGON - Groton New London

CURRENT METAR :
  • 281256Z 24010KT 10SM CLR 21/16 A2980 RMK AO2 SLP091 T02110161

EXPIRED METARs :
  • 281156Z 22008KT 10SM CLR 20/16 A2979 RMK AO2 SLP088 T02000161 10211 20200 58008
  • 281056Z 22005KT 10SM CLR 20/16 A2981 RMK AO2 SLP095 T02000161

TAF KGON
Valid from the 28 at 12:00 until the 29 at 12:00 UTC


281121Z 2812/2912 23012KT P6SM SCT070 SCT150
FM281400 24010KT P6SM VCSH SCT040 BKN090
FM281800 29010KT P6SM -SHRA VCTS BKN035CB
PROB30 2821/2824 5SM -TSRA BKN025CB
FM290000 33008KT P6SM BKN050
FM290500 35010G16KT P6SM SCT050 SCT150
KZBW FIR / North America



MET'MAP, your aeronautical weather chart ! - Copyright ORBIFLY December 2007 - Disclaimer

ORBIFLY MET'MAP TEAM :

Programming & Development : Alexandra Zaïnal
Concept & original design : Baudouin d'Aumeries
Assistance for programming : Marc-Olivier Méhu
Technical & hardware support : Manuel Goepfert

Contact : metmap@orbifly.com




SOURCES & CREDITS :

   NOAA       Earth
Advisory